ENRO

Røros Airport

Røros, Norway
TAF ENRO 221100Z 2212/2219 18005KT 9999 FEW002
Issued Valid From Valid To
Jan-22 @ 11:00 UTC
(6 hours ago)
Jan-22 @ 12:00 UTC
(5 hours ago)
Jan-22 @ 19:00 UTC
(in 2 hours)
Jan-22 @ 12:00 to Jan-22 @ 19:00
TAF ENRO 221100Z 2212/2219 18005KT 9999 FEW002
Wind Visibility Clouds
180° at 5 knots 10,000+ meters
  • Few at 200' AGL
TAF ENRO 221100Z 2212/2219 18005KT 9999 FEW002
Issued Jan-22 @ 11:00 UTC
(6 hours ago)
Valid From Jan-22 @ 12:00 UTC
(5 hours ago)
Valid To Jan-22 @ 19:00 UTC
(in 2 hours)
Jan-22 @ 12:00 - Jan-22 @ 19:00
Wind Visibility
180° at 5 knots 10,000+ meters
Clouds
  • Few at 200' AGL